sensor_id;sensor_type;location;lat;lon;timestamp;P1;durP1;ratioP1;P2;durP2;ratioP2
6093;SDS011;19964;42.060;24.700;2022-09-12T00:01:52;8.73;;;8.03;;
6093;SDS011;19964;42.060;24.700;2022-09-12T00:04:18;9.43;;;8.63;;
6093;SDS011;19964;42.060;24.700;2022-09-12T00:06:47;9.43;;;8.73;;
6093;SDS011;19964;42.060;24.700;2022-09-12T00:09:15;8.73;;;8.03;;
6093;SDS011;19964;42.060;24.700;2022-09-12T00:11:43;8.47;;;7.77;;
6093;SDS011;19964;42.060;24.700;2022-09-12T00:14:11;8.13;;;7.53;;
6093;SDS011;19964;42.060;24.700;2022-09-12T00:16:40;8.37;;;7.67;;
6093;SDS011;19964;42.060;24.700;2022-09-12T00:19:07;8.00;;;7.30;;
6093;SDS011;19964;42.060;24.700;2022-09-12T00:21:35;8.20;;;7.53;;
6093;SDS011;19964;42.060;24.700;2022-09-12T00:24:05;7.63;;;7.13;;
6093;SDS011;19964;42.060;24.700;2022-09-12T00:26:33;7.80;;;7.20;;
6093;SDS011;19964;42.060;24.700;2022-09-12T00:29:00;7.67;;;7.13;;
6093;SDS011;19964;42.060;24.700;2022-09-12T00:31:27;7.53;;;6.83;;
6093;SDS011;19964;42.060;24.700;2022-09-12T00:33:55;7.87;;;7.27;;
6093;SDS011;19964;42.060;24.700;2022-09-12T00:36:25;8.07;;;7.47;;
6093;SDS011;19964;42.060;24.700;2022-09-12T00:38:52;8.43;;;7.83;;
6093;SDS011;19964;42.060;24.700;2022-09-12T00:41:22;8.20;;;7.50;;
6093;SDS011;19964;42.060;24.700;2022-09-12T00:43:51;7.77;;;7.17;;
6093;SDS011;19964;42.060;24.700;2022-09-12T00:46:25;8.10;;;7.50;;
6093;SDS011;19964;42.060;24.700;2022-09-12T00:48:57;8.80;;;7.90;;
6093;SDS011;19964;42.060;24.700;2022-09-12T00:51:27;8.87;;;8.17;;
6093;SDS011;19964;42.060;24.700;2022-09-12T00:53:56;8.93;;;8.23;;
6093;SDS011;19964;42.060;24.700;2022-09-12T00:56:26;9.17;;;8.47;;
6093;SDS011;19964;42.060;24.700;2022-09-12T00:58:55;8.70;;;8.03;;
6093;SDS011;19964;42.060;24.700;2022-09-12T01:01:26;9.70;;;8.93;;
6093;SDS011;19964;42.060;24.700;2022-09-12T01:03:52;9.90;;;8.90;;
6093;SDS011;19964;42.060;24.700;2022-09-12T01:06:20;10.17;;;9.30;;
6093;SDS011;19964;42.060;24.700;2022-09-12T01:08:52;9.63;;;8.90;;
6093;SDS011;19964;42.060;24.700;2022-09-12T01:11:20;10.23;;;9.23;;
6093;SDS011;19964;42.060;24.700;2022-09-12T01:13:49;9.50;;;8.70;;
6093;SDS011;19964;42.060;24.700;2022-09-12T01:16:17;9.97;;;9.23;;
6093;SDS011;19964;42.060;24.700;2022-09-12T01:18:48;9.47;;;8.70;;
6093;SDS011;19964;42.060;24.700;2022-09-12T01:21:25;8.97;;;8.27;;
6093;SDS011;19964;42.060;24.700;2022-09-12T01:27:39;9.40;;;8.70;;
6093;SDS011;19964;42.060;24.700;2022-09-12T01:30:22;9.23;;;8.43;;
6093;SDS011;19964;42.060;24.700;2022-09-12T01:36:04;8.73;;;7.93;;
6093;SDS011;19964;42.060;24.700;2022-09-12T01:38:54;8.77;;;8.07;;
6093;SDS011;19964;42.060;24.700;2022-09-12T01:41:26;9.10;;;8.40;;
6093;SDS011;19964;42.060;24.700;2022-09-12T01:43:57;10.00;;;8.17;;
6093;SDS011;19964;42.060;24.700;2022-09-12T01:46:34;8.83;;;8.10;;
6093;SDS011;19964;42.060;24.700;2022-09-12T01:49:11;8.17;;;7.57;;
6093;SDS011;19964;42.060;24.700;2022-09-12T01:51:44;9.10;;;8.30;;
6093;SDS011;19964;42.060;24.700;2022-09-12T01:54:19;8.30;;;7.50;;
6093;SDS011;19964;42.060;24.700;2022-09-12T01:56:52;8.57;;;7.93;;
6093;SDS011;19964;42.060;24.700;2022-09-12T01:59:24;8.23;;;7.63;;
6093;SDS011;19964;42.060;24.700;2022-09-12T02:01:59;9.10;;;8.50;;
6093;SDS011;19964;42.060;24.700;2022-09-12T02:04:30;8.00;;;7.30;;
6093;SDS011;19964;42.060;24.700;2022-09-12T02:07:05;8.93;;;8.13;;
6093;SDS011;19964;42.060;24.700;2022-09-12T02:09:36;9.93;;;9.13;;
6093;SDS011;19964;42.060;24.700;2022-09-12T02:12:09;9.47;;;8.57;;
6093;SDS011;19964;42.060;24.700;2022-09-12T02:14:41;8.93;;;8.23;;
6093;SDS011;19964;42.060;24.700;2022-09-12T02:17:12;8.47;;;7.70;;
6093;SDS011;19964;42.060;24.700;2022-09-12T02:19:44;7.77;;;7.13;;
6093;SDS011;19964;42.060;24.700;2022-09-12T02:22:16;8.33;;;7.70;;
6093;SDS011;19964;42.060;24.700;2022-09-12T02:24:47;8.10;;;7.40;;
6093;SDS011;19964;42.060;24.700;2022-09-12T02:27:19;7.90;;;7.40;;
6093;SDS011;19964;42.060;24.700;2022-09-12T02:29:49;7.83;;;7.23;;
6093;SDS011;19964;42.060;24.700;2022-09-12T02:32:19;8.70;;;7.73;;
6093;SDS011;19964;42.060;24.700;2022-09-12T02:34:58;8.53;;;7.83;;
6093;SDS011;19964;42.060;24.700;2022-09-12T02:37:32;8.47;;;7.77;;
6093;SDS011;19964;42.060;24.700;2022-09-12T02:40:09;8.40;;;7.70;;
6093;SDS011;19964;42.060;24.700;2022-09-12T02:42:36;10.93;;;7.33;;
6093;SDS011;19964;42.060;24.700;2022-09-12T02:45:04;8.10;;;7.50;;
6093;SDS011;19964;42.060;24.700;2022-09-12T02:47:33;8.40;;;7.63;;
6093;SDS011;19964;42.060;24.700;2022-09-12T02:50:05;8.10;;;7.40;;
6093;SDS011;19964;42.060;24.700;2022-09-12T02:52:33;8.27;;;7.47;;
6093;SDS011;19964;42.060;24.700;2022-09-12T02:55:01;7.70;;;7.10;;
6093;SDS011;19964;42.060;24.700;2022-09-12T02:57:30;7.90;;;7.30;;
6093;SDS011;19964;42.060;24.700;2022-09-12T02:59:58;7.47;;;6.97;;
6093;SDS011;19964;42.060;24.700;2022-09-12T03:02:29;7.60;;;7.07;;
6093;SDS011;19964;42.060;24.700;2022-09-12T03:05:16;8.57;;;7.77;;
6093;SDS011;19964;42.060;24.700;2022-09-12T03:11:05;7.63;;;7.03;;
6093;SDS011;19964;42.060;24.700;2022-09-12T03:13:45;7.90;;;7.20;;
6093;SDS011;19964;42.060;24.700;2022-09-12T03:16:24;7.60;;;7.07;;
6093;SDS011;19964;42.060;24.700;2022-09-12T03:18:59;7.60;;;7.00;;
6093;SDS011;19964;42.060;24.700;2022-09-12T03:21:35;7.60;;;7.00;;
6093;SDS011;19964;42.060;24.700;2022-09-12T03:24:08;8.13;;;7.60;;
6093;SDS011;19964;42.060;24.700;2022-09-12T03:26:39;7.80;;;7.13;;
6093;SDS011;19964;42.060;24.700;2022-09-12T03:29:10;7.60;;;6.90;;
6093;SDS011;19964;42.060;24.700;2022-09-12T03:31:46;7.13;;;6.63;;
6093;SDS011;19964;42.060;24.700;2022-09-12T03:34:17;7.47;;;6.93;;
6093;SDS011;19964;42.060;24.700;2022-09-12T03:36:44;7.20;;;6.70;;
6093;SDS011;19964;42.060;24.700;2022-09-12T03:39:11;6.13;;;5.63;;
6093;SDS011;19964;42.060;24.700;2022-09-12T03:41:38;6.53;;;5.93;;
6093;SDS011;19964;42.060;24.700;2022-09-12T03:44:05;9.83;;;6.20;;
6093;SDS011;19964;42.060;24.700;2022-09-12T03:46:32;5.60;;;5.20;;
6093;SDS011;19964;42.060;24.700;2022-09-12T03:48:59;6.30;;;5.87;;
6093;SDS011;19964;42.060;24.700;2022-09-12T03:51:28;6.17;;;5.63;;
6093;SDS011;19964;42.060;24.700;2022-09-12T03:53:55;5.77;;;5.30;;
6093;SDS011;19964;42.060;24.700;2022-09-12T03:56:22;5.83;;;5.33;;
6093;SDS011;19964;42.060;24.700;2022-09-12T03:58:49;5.50;;;5.10;;
6093;SDS011;19964;42.060;24.700;2022-09-12T04:01:17;5.50;;;5.10;;
6093;SDS011;19964;42.060;24.700;2022-09-12T04:03:46;5.20;;;4.70;;
6093;SDS011;19964;42.060;24.700;2022-09-12T04:06:15;4.57;;;4.23;;
6093;SDS011;19964;42.060;24.700;2022-09-12T04:08:48;5.00;;;4.57;;
6093;SDS011;19964;42.060;24.700;2022-09-12T04:11:17;5.50;;;4.60;;
6093;SDS011;19964;42.060;24.700;2022-09-12T04:13:45;4.60;;;4.30;;
6093;SDS011;19964;42.060;24.700;2022-09-12T04:16:13;3.90;;;3.70;;
6093;SDS011;19964;42.060;24.700;2022-09-12T04:18:41;4.40;;;4.10;;
6093;SDS011;19964;42.060;24.700;2022-09-12T04:21:10;5.20;;;3.70;;
6093;SDS011;19964;42.060;24.700;2022-09-12T04:23:45;3.80;;;3.50;;
6093;SDS011;19964;42.060;24.700;2022-09-12T04:26:14;3.80;;;3.50;;
6093;SDS011;19964;42.060;24.700;2022-09-12T04:28:44;3.63;;;3.40;;
6093;SDS011;19964;42.060;24.700;2022-09-12T04:31:13;3.10;;;2.90;;
6093;SDS011;19964;42.060;24.700;2022-09-12T04:33:42;3.20;;;3.00;;
6093;SDS011;19964;42.060;24.700;2022-09-12T04:36:09;5.33;;;3.00;;
6093;SDS011;19964;42.060;24.700;2022-09-12T04:38:40;5.03;;;2.87;;
6093;SDS011;19964;42.060;24.700;2022-09-12T04:41:11;3.03;;;2.80;;
6093;SDS011;19964;42.060;24.700;2022-09-12T04:43:40;4.77;;;2.50;;
6093;SDS011;19964;42.060;24.700;2022-09-12T04:46:10;5.27;;;2.23;;
6093;SDS011;19964;42.060;24.700;2022-09-12T04:48:41;2.77;;;2.50;;
6093;SDS011;19964;42.060;24.700;2022-09-12T04:51:09;2.30;;;2.20;;
6093;SDS011;19964;42.060;24.700;2022-09-12T04:53:38;2.17;;;2.07;;
6093;SDS011;19964;42.060;24.700;2022-09-12T04:56:05;2.00;;;1.90;;
6093;SDS011;19964;42.060;24.700;2022-09-12T04:58:34;2.00;;;1.90;;
6093;SDS011;19964;42.060;24.700;2022-09-12T05:01:06;2.47;;;2.27;;
6093;SDS011;19964;42.060;24.700;2022-09-12T05:03:35;2.20;;;2.10;;
6093;SDS011;19964;42.060;24.700;2022-09-12T05:06:04;2.03;;;1.80;;
6093;SDS011;19964;42.060;24.700;2022-09-12T05:08:32;1.67;;;1.60;;
6093;SDS011;19964;42.060;24.700;2022-09-12T05:11:00;2.03;;;1.93;;
6093;SDS011;19964;42.060;24.700;2022-09-12T05:13:29;2.17;;;2.03;;
6093;SDS011;19964;42.060;24.700;2022-09-12T05:15:56;2.30;;;1.80;;
6093;SDS011;19964;42.060;24.700;2022-09-12T05:18:25;3.00;;;1.67;;
6093;SDS011;19964;42.060;24.700;2022-09-12T05:20:53;2.00;;;1.90;;
6093;SDS011;19964;42.060;24.700;2022-09-12T05:23:20;1.90;;;1.80;;
6093;SDS011;19964;42.060;24.700;2022-09-12T05:25:49;3.90;;;1.80;;
6093;SDS011;19964;42.060;24.700;2022-09-12T05:28:16;1.97;;;1.87;;
6093;SDS011;19964;42.060;24.700;2022-09-12T05:30:45;1.70;;;1.60;;
6093;SDS011;19964;42.060;24.700;2022-09-12T05:33:12;1.90;;;1.80;;
6093;SDS011;19964;42.060;24.700;2022-09-12T05:35:40;2.20;;;2.00;;
6093;SDS011;19964;42.060;24.700;2022-09-12T05:38:07;1.70;;;1.60;;
6093;SDS011;19964;42.060;24.700;2022-09-12T05:40:34;2.93;;;1.77;;
6093;SDS011;19964;42.060;24.700;2022-09-12T05:43:01;1.70;;;1.60;;
6093;SDS011;19964;42.060;24.700;2022-09-12T05:45:28;1.70;;;1.60;;
6093;SDS011;19964;42.060;24.700;2022-09-12T05:47:56;1.63;;;1.53;;
6093;SDS011;19964;42.060;24.700;2022-09-12T05:50:23;3.57;;;1.70;;
6093;SDS011;19964;42.060;24.700;2022-09-12T05:52:51;4.63;;;1.97;;
6093;SDS011;19964;42.060;24.700;2022-09-12T05:55:19;1.40;;;1.40;;
6093;SDS011;19964;42.060;24.700;2022-09-12T05:57:47;3.87;;;1.80;;
6093;SDS011;19964;42.060;24.700;2022-09-12T06:00:14;2.13;;;1.90;;
6093;SDS011;19964;42.060;24.700;2022-09-12T06:02:43;1.90;;;1.80;;
6093;SDS011;19964;42.060;24.700;2022-09-12T06:05:10;4.30;;;1.70;;
6093;SDS011;19964;42.060;24.700;2022-09-12T06:07:37;2.00;;;1.90;;
6093;SDS011;19964;42.060;24.700;2022-09-12T06:10:05;1.87;;;1.77;;
6093;SDS011;19964;42.060;24.700;2022-09-12T06:12:34;1.77;;;1.67;;
6093;SDS011;19964;42.060;24.700;2022-09-12T06:15:01;1.70;;;1.60;;
6093;SDS011;19964;42.060;24.700;2022-09-12T06:17:28;1.40;;;1.40;;
6093;SDS011;19964;42.060;24.700;2022-09-12T06:19:54;1.30;;;1.30;;
6093;SDS011;19964;42.060;24.700;2022-09-12T06:22:21;1.58;;;1.50;;
6093;SDS011;19964;42.060;24.700;2022-09-12T06:24:48;2.90;;;1.60;;
6093;SDS011;19964;42.060;24.700;2022-09-12T06:27:17;1.88;;;1.40;;
6093;SDS011;19964;42.060;24.700;2022-09-12T06:29:44;1.50;;;1.30;;
6093;SDS011;19964;42.060;24.700;2022-09-12T06:32:11;1.88;;;1.40;;
6093;SDS011;19964;42.060;24.700;2022-09-12T06:34:38;1.75;;;1.65;;
6093;SDS011;19964;42.060;24.700;2022-09-12T06:37:05;4.65;;;1.58;;
6093;SDS011;19964;42.060;24.700;2022-09-12T06:39:32;1.83;;;1.10;;
6093;SDS011;19964;42.060;24.700;2022-09-12T06:41:59;1.50;;;1.40;;
6093;SDS011;19964;42.060;24.700;2022-09-12T06:44:27;2.05;;;1.38;;
6093;SDS011;19964;42.060;24.700;2022-09-12T06:46:54;1.42;;;1.33;;
6093;SDS011;19964;42.060;24.700;2022-09-12T06:49:22;1.42;;;1.33;;
6093;SDS011;19964;42.060;24.700;2022-09-12T06:51:49;2.05;;;1.20;;
6093;SDS011;19964;42.060;24.700;2022-09-12T06:54:16;1.25;;;1.15;;
6093;SDS011;19964;42.060;24.700;2022-09-12T06:56:44;1.13;;;1.13;;
6093;SDS011;19964;42.060;24.700;2022-09-12T06:59:11;1.40;;;1.30;;
6093;SDS011;19964;42.060;24.700;2022-09-12T07:01:39;1.40;;;1.30;;
6093;SDS011;19964;42.060;24.700;2022-09-12T07:04:06;1.50;;;1.27;;
6093;SDS011;19964;42.060;24.700;2022-09-12T07:06:35;1.15;;;1.15;;
6093;SDS011;19964;42.060;24.700;2022-09-12T07:09:04;1.50;;;1.40;;
6093;SDS011;19964;42.060;24.700;2022-09-12T07:11:33;1.17;;;1.05;;
6093;SDS011;19964;42.060;24.700;2022-09-12T07:14:03;3.70;;;1.25;;
6093;SDS011;19964;42.060;24.700;2022-09-12T07:16:30;1.30;;;1.20;;
6093;SDS011;19964;42.060;24.700;2022-09-12T07:19:00;1.35;;;1.27;;
6093;SDS011;19964;42.060;24.700;2022-09-12T07:21:28;1.58;;;1.15;;
6093;SDS011;19964;42.060;24.700;2022-09-12T07:23:55;1.10;;;1.10;;
6093;SDS011;19964;42.060;24.700;2022-09-12T07:26:23;1.40;;;1.30;;
6093;SDS011;19964;42.060;24.700;2022-09-12T07:28:51;3.97;;;1.25;;
6093;SDS011;19964;42.060;24.700;2022-09-12T07:31:20;1.20;;;1.10;;
6093;SDS011;19964;42.060;24.700;2022-09-12T07:33:48;1.42;;;1.10;;
6093;SDS011;19964;42.060;24.700;2022-09-12T07:36:17;1.05;;;1.05;;
6093;SDS011;19964;42.060;24.700;2022-09-12T07:38:46;1.42;;;1.33;;
6093;SDS011;19964;42.060;24.700;2022-09-12T07:41:14;2.50;;;1.20;;
6093;SDS011;19964;42.060;24.700;2022-09-12T07:43:43;1.20;;;1.20;;
6093;SDS011;19964;42.060;24.700;2022-09-12T07:46:11;2.47;;;1.10;;
6093;SDS011;19964;42.060;24.700;2022-09-12T07:48:38;1.35;;;1.20;;
6093;SDS011;19964;42.060;24.700;2022-09-12T07:51:06;1.25;;;1.08;;
6093;SDS011;19964;42.060;24.700;2022-09-12T07:53:37;1.58;;;1.20;;
6093;SDS011;19964;42.060;24.700;2022-09-12T07:56:05;1.67;;;1.13;;
6093;SDS011;19964;42.060;24.700;2022-09-12T07:58:34;1.55;;;1.00;;
6093;SDS011;19964;42.060;24.700;2022-09-12T08:01:02;1.00;;;1.00;;
6093;SDS011;19964;42.060;24.700;2022-09-12T08:03:30;2.75;;;1.10;;
6093;SDS011;19964;42.060;24.700;2022-09-12T08:06:01;0.80;;;0.80;;
6093;SDS011;19964;42.060;24.700;2022-09-12T08:08:29;0.90;;;0.90;;
6093;SDS011;19964;42.060;24.700;2022-09-12T08:10:57;1.17;;;1.08;;
6093;SDS011;19964;42.060;24.700;2022-09-12T08:13:25;1.10;;;1.10;;
6093;SDS011;19964;42.060;24.700;2022-09-12T08:15:55;1.38;;;0.93;;
6093;SDS011;19964;42.060;24.700;2022-09-12T08:18:24;0.82;;;0.82;;
6093;SDS011;19964;42.060;24.700;2022-09-12T08:20:54;0.80;;;0.80;;
6093;SDS011;19964;42.060;24.700;2022-09-12T08:23:22;1.42;;;0.88;;
6093;SDS011;19964;42.060;24.700;2022-09-12T08:25:49;1.00;;;1.00;;
6093;SDS011;19964;42.060;24.700;2022-09-12T08:28:18;1.10;;;1.10;;
6093;SDS011;19964;42.060;24.700;2022-09-12T08:30:45;2.00;;;1.15;;
6093;SDS011;19964;42.060;24.700;2022-09-12T08:33:11;1.85;;;0.73;;
6093;SDS011;19964;42.060;24.700;2022-09-12T08:35:39;0.90;;;0.90;;
6093;SDS011;19964;42.060;24.700;2022-09-12T08:38:06;2.45;;;0.90;;
6093;SDS011;19964;42.060;24.700;2022-09-12T08:40:36;1.25;;;1.10;;
6093;SDS011;19964;42.060;24.700;2022-09-12T08:43:12;0.98;;;0.98;;
6093;SDS011;19964;42.060;24.700;2022-09-12T08:45:51;1.00;;;1.00;;
6093;SDS011;19964;42.060;24.700;2022-09-12T08:48:24;2.55;;;1.25;;
6093;SDS011;19964;42.060;24.700;2022-09-12T08:50:51;2.25;;;1.27;;
6093;SDS011;19964;42.060;24.700;2022-09-12T08:53:19;1.08;;;1.00;;
6093;SDS011;19964;42.060;24.700;2022-09-12T08:55:50;2.40;;;1.00;;
6093;SDS011;19964;42.060;24.700;2022-09-12T08:58:19;2.00;;;1.10;;
6093;SDS011;19964;42.060;24.700;2022-09-12T09:00:52;1.20;;;1.20;;
6093;SDS011;19964;42.060;24.700;2022-09-12T09:03:37;1.10;;;1.10;;
6093;SDS011;19964;42.060;24.700;2022-09-12T09:06:38;1.45;;;1.13;;
6093;SDS011;19964;42.060;24.700;2022-09-12T09:09:19;1.50;;;1.40;;
6093;SDS011;19964;42.060;24.700;2022-09-12T09:11:58;1.33;;;1.20;;
6093;SDS011;19964;42.060;24.700;2022-09-12T09:14:38;1.30;;;1.30;;
6093;SDS011;19964;42.060;24.700;2022-09-12T09:17:19;1.40;;;1.30;;
6093;SDS011;19964;42.060;24.700;2022-09-12T09:19:52;1.23;;;1.10;;
6093;SDS011;19964;42.060;24.700;2022-09-12T09:22:30;1.30;;;1.30;;
6093;SDS011;19964;42.060;24.700;2022-09-12T09:25:04;3.40;;;1.42;;
6093;SDS011;19964;42.060;24.700;2022-09-12T09:27:40;1.30;;;1.30;;
6093;SDS011;19964;42.060;24.700;2022-09-12T09:30:14;1.48;;;1.38;;
6093;SDS011;19964;42.060;24.700;2022-09-12T09:32:44;1.95;;;1.35;;
6093;SDS011;19964;42.060;24.700;2022-09-12T09:35:18;1.45;;;1.40;;
6093;SDS011;19964;42.060;24.700;2022-09-12T09:37:57;1.90;;;1.20;;
6093;SDS011;19964;42.060;24.700;2022-09-12T09:40:29;2.88;;;1.30;;
6093;SDS011;19964;42.060;24.700;2022-09-12T09:43:04;1.30;;;1.30;;
6093;SDS011;19964;42.060;24.700;2022-09-12T09:45:37;1.20;;;1.20;;
6093;SDS011;19964;42.060;24.700;2022-09-12T09:48:12;1.20;;;1.20;;
6093;SDS011;19964;42.060;24.700;2022-09-12T09:50:42;1.40;;;1.30;;
6093;SDS011;19964;42.060;24.700;2022-09-12T09:53:20;1.27;;;1.20;;
6093;SDS011;19964;42.060;24.700;2022-09-12T09:55:54;1.40;;;1.40;;
6093;SDS011;19964;42.060;24.700;2022-09-12T09:58:29;1.30;;;1.30;;
6093;SDS011;19964;42.060;24.700;2022-09-12T10:00:57;1.35;;;1.30;;
6093;SDS011;19964;42.060;24.700;2022-09-12T10:03:29;1.60;;;1.50;;
6093;SDS011;19964;42.060;24.700;2022-09-12T10:05:59;3.88;;;1.67;;
6093;SDS011;19964;42.060;24.700;2022-09-12T10:08:27;1.70;;;1.42;;
6093;SDS011;19964;42.060;24.700;2022-09-12T10:10:57;1.50;;;1.50;;
6093;SDS011;19964;42.060;24.700;2022-09-12T10:13:29;1.95;;;1.45;;
6093;SDS011;19964;42.060;24.700;2022-09-12T10:16:00;1.70;;;1.60;;
6093;SDS011;19964;42.060;24.700;2022-09-12T10:18:34;1.70;;;1.60;;
6093;SDS011;19964;42.060;24.700;2022-09-12T10:21:11;2.42;;;1.40;;
6093;SDS011;19964;42.060;24.700;2022-09-12T10:23:42;1.40;;;1.40;;
6093;SDS011;19964;42.060;24.700;2022-09-12T10:26:11;1.70;;;1.60;;
6093;SDS011;19964;42.060;24.700;2022-09-12T10:28:40;3.38;;;1.77;;
6093;SDS011;19964;42.060;24.700;2022-09-12T10:31:12;1.50;;;1.35;;
6093;SDS011;19964;42.060;24.700;2022-09-12T10:33:43;1.60;;;1.50;;
6093;SDS011;19964;42.060;24.700;2022-09-12T10:36:17;1.83;;;1.75;;
6093;SDS011;19964;42.060;24.700;2022-09-12T10:38:47;1.60;;;1.60;;
6093;SDS011;19964;42.060;24.700;2022-09-12T10:41:16;1.65;;;1.60;;
6093;SDS011;19964;42.060;24.700;2022-09-12T10:43:44;2.13;;;1.60;;
6093;SDS011;19964;42.060;24.700;2022-09-12T10:46:21;1.70;;;1.58;;
6093;SDS011;19964;42.060;24.700;2022-09-12T10:51:40;1.85;;;1.70;;
6093;SDS011;19964;42.060;24.700;2022-09-12T10:54:07;2.10;;;2.00;;
6093;SDS011;19964;42.060;24.700;2022-09-12T10:56:37;1.90;;;1.80;;
6093;SDS011;19964;42.060;24.700;2022-09-12T10:59:15;2.05;;;1.95;;
6093;SDS011;19964;42.060;24.700;2022-09-12T11:01:49;2.55;;;2.35;;
6093;SDS011;19964;42.060;24.700;2022-09-12T11:04:31;1.98;;;1.88;;
6093;SDS011;19964;42.060;24.700;2022-09-12T11:07:26;2.15;;;2.00;;
6093;SDS011;19964;42.060;24.700;2022-09-12T11:10:08;2.10;;;2.00;;
6093;SDS011;19964;42.060;24.700;2022-09-12T11:12:47;3.05;;;2.30;;
6093;SDS011;19964;42.060;24.700;2022-09-12T11:15:29;2.30;;;2.20;;
6093;SDS011;19964;42.060;24.700;2022-09-12T11:18:09;2.10;;;2.00;;
6093;SDS011;19964;42.060;24.700;2022-09-12T11:20:55;1.88;;;1.83;;
6093;SDS011;19964;42.060;24.700;2022-09-12T11:23:40;2.88;;;2.00;;
6093;SDS011;19964;42.060;24.700;2022-09-12T11:26:30;2.00;;;1.80;;
6093;SDS011;19964;42.060;24.700;2022-09-12T11:29:11;2.30;;;2.10;;
6093;SDS011;19964;42.060;24.700;2022-09-12T11:31:51;2.17;;;2.08;;
6093;SDS011;19964;42.060;24.700;2022-09-12T11:34:33;2.10;;;2.00;;
6093;SDS011;19964;42.060;24.700;2022-09-12T11:37:18;2.53;;;2.17;;
6093;SDS011;19964;42.060;24.700;2022-09-12T11:39:52;2.40;;;2.20;;
6093;SDS011;19964;42.060;24.700;2022-09-12T11:42:24;2.53;;;2.33;;
6093;SDS011;19964;42.060;24.700;2022-09-12T11:44:57;2.22;;;2.13;;
6093;SDS011;19964;42.060;24.700;2022-09-12T11:47:31;2.63;;;2.50;;
6093;SDS011;19964;42.060;24.700;2022-09-12T11:50:01;2.30;;;2.20;;
6093;SDS011;19964;42.060;24.700;2022-09-12T11:52:34;2.50;;;2.40;;
6093;SDS011;19964;42.060;24.700;2022-09-12T11:55:10;2.50;;;2.40;;
6093;SDS011;19964;42.060;24.700;2022-09-12T11:57:44;2.10;;;2.00;;
6093;SDS011;19964;42.060;24.700;2022-09-12T12:00:15;2.15;;;2.05;;
6093;SDS011;19964;42.060;24.700;2022-09-12T12:02:47;2.10;;;2.00;;
6093;SDS011;19964;42.060;24.700;2022-09-12T12:05:23;2.20;;;2.10;;
6093;SDS011;19964;42.060;24.700;2022-09-12T12:07:54;2.40;;;2.20;;
6093;SDS011;19964;42.060;24.700;2022-09-12T12:10:24;2.13;;;2.03;;
6093;SDS011;19964;42.060;24.700;2022-09-12T12:12:59;3.50;;;2.33;;
6093;SDS011;19964;42.060;24.700;2022-09-12T12:15:28;2.13;;;2.03;;
6093;SDS011;19964;42.060;24.700;2022-09-12T12:17:59;2.78;;;2.10;;
6093;SDS011;19964;42.060;24.700;2022-09-12T12:20:28;3.65;;;2.20;;
6093;SDS011;19964;42.060;24.700;2022-09-12T12:22:57;2.20;;;2.10;;
6093;SDS011;19964;42.060;24.700;2022-09-12T12:25:25;2.20;;;2.10;;
6093;SDS011;19964;42.060;24.700;2022-09-12T12:28:05;2.17;;;2.08;;
6093;SDS011;19964;42.060;24.700;2022-09-12T12:36:28;2.22;;;2.13;;
6093;SDS011;19964;42.060;24.700;2022-09-12T12:39:00;2.10;;;2.00;;
6093;SDS011;19964;42.060;24.700;2022-09-12T12:48:25;2.47;;;2.38;;
6093;SDS011;19964;42.060;24.700;2022-09-12T12:51:21;2.70;;;2.60;;
6093;SDS011;19964;42.060;24.700;2022-09-12T12:53:54;2.10;;;2.00;;
6093;SDS011;19964;42.060;24.700;2022-09-12T12:56:26;2.40;;;1.80;;
6093;SDS011;19964;42.060;24.700;2022-09-12T12:58:59;2.45;;;2.20;;
6093;SDS011;19964;42.060;24.700;2022-09-12T13:01:28;2.10;;;1.90;;
6093;SDS011;19964;42.060;24.700;2022-09-12T13:03:57;2.45;;;2.00;;
6093;SDS011;19964;42.060;24.700;2022-09-12T13:06:30;2.70;;;2.50;;
6093;SDS011;19964;42.060;24.700;2022-09-12T13:09:00;2.88;;;2.78;;
6093;SDS011;19964;42.060;24.700;2022-09-12T13:11:32;3.05;;;2.85;;
6093;SDS011;19964;42.060;24.700;2022-09-12T13:14:02;2.55;;;2.40;;
6093;SDS011;19964;42.060;24.700;2022-09-12T13:16:35;2.80;;;2.70;;
6093;SDS011;19964;42.060;24.700;2022-09-12T13:19:04;2.80;;;2.63;;
6093;SDS011;19964;42.060;24.700;2022-09-12T13:21:33;3.00;;;2.90;;
6093;SDS011;19964;42.060;24.700;2022-09-12T13:24:01;2.88;;;2.78;;
6093;SDS011;19964;42.060;24.700;2022-09-12T13:26:43;2.97;;;2.80;;
6093;SDS011;19964;42.060;24.700;2022-09-12T13:29:14;3.20;;;2.90;;
6093;SDS011;19964;42.060;24.700;2022-09-12T13:31:42;3.78;;;3.50;;
6093;SDS011;19964;42.060;24.700;2022-09-12T13:34:11;3.78;;;3.47;;
6093;SDS011;19964;42.060;24.700;2022-09-12T13:39:53;4.05;;;3.70;;
6093;SDS011;19964;42.060;24.700;2022-09-12T13:42:41;3.55;;;3.35;;
6093;SDS011;19964;42.060;24.700;2022-09-12T13:45:13;3.55;;;3.35;;
6093;SDS011;19964;42.060;24.700;2022-09-12T13:47:45;3.85;;;3.55;;
6093;SDS011;19964;42.060;24.700;2022-09-12T13:50:15;4.00;;;3.72;;
6093;SDS011;19964;42.060;24.700;2022-09-12T13:52:46;3.80;;;3.60;;
6093;SDS011;19964;42.060;24.700;2022-09-12T13:55:24;3.63;;;3.40;;
6093;SDS011;19964;42.060;24.700;2022-09-12T13:57:57;3.90;;;3.60;;
6093;SDS011;19964;42.060;24.700;2022-09-12T14:00:26;4.03;;;3.72;;
6093;SDS011;19964;42.060;24.700;2022-09-12T14:02:55;4.60;;;4.40;;
6093;SDS011;19964;42.060;24.700;2022-09-12T14:05:36;5.03;;;4.15;;
6093;SDS011;19964;42.060;24.700;2022-09-12T14:08:05;4.30;;;4.00;;
6093;SDS011;19964;42.060;24.700;2022-09-12T14:10:34;4.80;;;4.55;;
6093;SDS011;19964;42.060;24.700;2022-09-12T14:13:09;5.10;;;4.80;;
6093;SDS011;19964;42.060;24.700;2022-09-12T14:15:40;5.60;;;5.20;;
6093;SDS011;19964;42.060;24.700;2022-09-12T14:18:19;6.22;;;5.72;;
6093;SDS011;19964;42.060;24.700;2022-09-12T14:20:49;6.07;;;5.63;;
6093;SDS011;19964;42.060;24.700;2022-09-12T14:23:24;6.75;;;6.22;;
6093;SDS011;19964;42.060;24.700;2022-09-12T14:25:54;6.15;;;5.68;;
6093;SDS011;19964;42.060;24.700;2022-09-12T14:28:24;6.50;;;5.90;;
6093;SDS011;19964;42.060;24.700;2022-09-12T14:31:02;6.88;;;6.32;;
6093;SDS011;19964;42.060;24.700;2022-09-12T14:33:32;6.13;;;5.53;;
6093;SDS011;19964;42.060;24.700;2022-09-12T14:36:15;7.10;;;6.70;;
6093;SDS011;19964;42.060;24.700;2022-09-12T14:38:47;8.02;;;7.40;;
6093;SDS011;19964;42.060;24.700;2022-09-12T14:43:52;7.07;;;6.47;;
6093;SDS011;19964;42.060;24.700;2022-09-12T14:46:22;7.32;;;6.72;;
6093;SDS011;19964;42.060;24.700;2022-09-12T14:48:52;6.50;;;6.20;;
6093;SDS011;19964;42.060;24.700;2022-09-12T14:51:24;6.82;;;6.32;;
6093;SDS011;19964;42.060;24.700;2022-09-12T14:53:53;7.05;;;6.55;;
6093;SDS011;19964;42.060;24.700;2022-09-12T14:56:21;8.13;;;7.55;;
6093;SDS011;19964;42.060;24.700;2022-09-12T15:04:51;8.88;;;8.13;;
6093;SDS011;19964;42.060;24.700;2022-09-12T15:07:25;7.90;;;7.30;;
6093;SDS011;19964;42.060;24.700;2022-09-12T15:09:58;8.85;;;8.20;;
6093;SDS011;19964;42.060;24.700;2022-09-12T15:12:27;7.50;;;6.90;;
6093;SDS011;19964;42.060;24.700;2022-09-12T15:14:57;7.60;;;7.10;;
6093;SDS011;19964;42.060;24.700;2022-09-12T15:17:28;7.70;;;7.10;;
6093;SDS011;19964;42.060;24.700;2022-09-12T15:19:55;7.17;;;6.67;;
6093;SDS011;19964;42.060;24.700;2022-09-12T15:22:22;8.30;;;7.33;;
6093;SDS011;19964;42.060;24.700;2022-09-12T15:24:50;8.07;;;7.47;;
6093;SDS011;19964;42.060;24.700;2022-09-12T15:27:17;7.30;;;6.90;;
6093;SDS011;19964;42.060;24.700;2022-09-12T15:29:44;7.80;;;7.10;;
6093;SDS011;19964;42.060;24.700;2022-09-12T15:32:14;7.10;;;6.60;;
6093;SDS011;19964;42.060;24.700;2022-09-12T15:34:48;7.67;;;7.23;;
6093;SDS011;19964;42.060;24.700;2022-09-12T15:37:17;8.17;;;7.57;;
6093;SDS011;19964;42.060;24.700;2022-09-12T15:39:46;8.20;;;7.60;;
6093;SDS011;19964;42.060;24.700;2022-09-12T15:42:13;8.50;;;7.80;;
6093;SDS011;19964;42.060;24.700;2022-09-12T15:44:41;8.80;;;8.10;;
6093;SDS011;19964;42.060;24.700;2022-09-12T15:47:09;9.27;;;7.67;;
6093;SDS011;19964;42.060;24.700;2022-09-12T15:49:40;8.83;;;8.33;;